Time;durP1;ratioP1;P1;durP2;ratioP2;P2;SDS_P1;SDS_P2;PMS_P1;PMS_P2;Temp;Humidity;BMP_temperature;BMP_pressure;BME280_temperature;BME280_humidity;BME280_pressure;Samples;Min_cycle;Max_cycle;Signal;HPM_P1;HPM_P2
2023/06/14 00:01:03;;;;;;;3.55;2.50;;;;;;;20.25;47.81;101462.25;5101533;28;20031;-78
2023/06/14 00:03:29;;;;;;;4.30;2.63;;;;;;;19.82;48.42;101463.72;5102063;28;20118;-78
2023/06/14 00:05:54;;;;;;;4.20;2.65;;;;;;;19.90;48.23;101467.22;5094160;28;20501;-78
2023/06/14 00:08:22;;;;;;;6.25;2.45;;;;;;;19.84;48.23;101466.94;5085312;28;20024;-78
2023/06/14 00:10:48;;;;;;;3.88;2.30;;;;;;;19.51;49.50;101462.88;5084035;28;20485;-78
2023/06/14 00:13:14;;;;;;;4.78;2.67;;;;;;;19.66;49.05;101463.50;5094361;28;20195;-78
2023/06/14 00:15:39;;;;;;;4.25;2.40;;;;;;;19.75;48.67;101460.16;5067191;28;20031;-78
2023/06/14 00:18:05;;;;;;;5.95;2.55;;;;;;;19.79;48.39;101455.22;5085229;28;20027;-78
2023/06/14 00:20:35;;;;;;;3.97;2.75;;;;;;;19.41;48.98;101461.00;5073747;28;20024;-78
2023/06/14 00:23:01;;;;;;;3.92;2.50;;;;;;;19.35;49.43;101460.66;5094816;28;20391;-78
2023/06/14 00:25:26;;;;;;;4.53;2.67;;;;;;;19.39;49.27;101457.78;5090423;28;20027;-78
2023/06/14 00:27:52;;;;;;;4.30;2.53;;;;;;;19.58;48.72;101454.25;5094934;28;20028;-78
2023/06/14 00:30:18;;;;;;;4.82;2.75;;;;;;;19.65;49.19;101462.72;5096324;28;20059;-78
2023/06/14 00:32:44;;;;;;;3.63;2.45;;;;;;;19.42;48.75;101456.94;5086515;28;20418;-78
2023/06/14 00:35:10;;;;;;;4.38;2.60;;;;;;;19.45;48.89;101456.88;5088950;28;20031;-78
2023/06/14 00:37:35;;;;;;;4.43;2.50;;;;;;;19.27;49.14;101459.97;5097297;28;20478;-78
2023/06/14 00:40:01;;;;;;;5.50;2.90;;;;;;;19.43;49.01;101458.53;5082154;28;20425;-78
2023/06/14 00:42:27;;;;;;;7.57;3.08;;;;;;;19.27;49.31;101465.63;5088209;28;20434;-78
2023/06/14 00:44:53;;;;;;;6.85;3.00;;;;;;;19.25;48.95;101467.28;5085162;28;20130;-78
2023/06/14 00:47:19;;;;;;;5.22;2.58;;;;;;;19.28;49.02;101463.59;5088995;28;20053;-78
2023/06/14 00:49:46;;;;;;;4.22;2.47;;;;;;;19.16;49.82;101464.94;5096715;28;20020;-78
2023/06/14 00:52:12;;;;;;;2.78;2.40;;;;;;;19.17;49.63;101463.72;5095774;28;20464;-78
2023/06/14 00:54:38;;;;;;;3.10;2.47;;;;;;;19.18;49.26;101461.69;5099661;28;20089;-78
2023/06/14 00:57:04;;;;;;;8.20;3.13;;;;;;;18.97;50.20;101462.72;5092751;28;20042;-78
2023/06/14 00:59:30;;;;;;;6.78;2.65;;;;;;;19.03;49.88;101458.22;5087561;28;20035;-78
2023/06/14 01:01:55;;;;;;;3.35;3.05;;;;;;;19.07;50.18;101464.66;5096448;28;20031;-78
2023/06/14 01:04:20;;;;;;;2.63;2.30;;;;;;;19.13;49.82;101460.13;5077862;28;21724;-78
2023/06/14 01:06:54;;;;;;;3.78;2.95;;;;;;;19.19;49.30;101466.16;5103057;28;20043;-78
2023/06/14 01:09:32;;;;;;;6.20;2.88;;;;;;;19.09;49.58;101462.19;5076749;28;20122;-78
2023/06/14 01:12:11;;;;;;;3.78;2.08;;;;;;;18.92;50.12;101458.34;5076665;28;20036;-78
2023/06/14 01:14:38;;;;;;;3.83;2.88;;;;;;;19.07;49.83;101470.31;5095689;28;20031;-78
2023/06/14 01:17:04;;;;;;;4.75;2.47;;;;;;;19.11;50.01;101459.75;5101389;28;20035;-78
2023/06/14 01:19:31;;;;;;;3.53;2.75;;;;;;;18.96;50.02;101461.13;5097669;28;20051;-78
2023/06/14 01:21:57;;;;;;;3.40;2.70;;;;;;;18.73;50.87;101462.56;5091566;28;20487;-78
2023/06/14 01:24:28;;;;;;;3.72;2.83;;;;;;;18.98;49.91;101462.31;5096398;28;20059;-78
2023/06/14 01:26:55;;;;;;;3.53;2.92;;;;;;;18.75;50.23;101462.94;5102695;28;20540;-78
2023/06/14 01:29:24;;;;;;;4.55;2.60;;;;;;;18.92;49.94;101457.53;5098883;28;20048;-78
2023/06/14 01:31:50;;;;;;;2.70;2.13;;;;;;;18.77;50.26;101456.84;5094803;28;20097;-78
2023/06/14 01:34:16;;;;;;;3.35;2.83;;;;;;;18.84;50.19;101466.09;5096784;28;20032;-78
2023/06/14 01:36:44;;;;;;;4.45;2.80;;;;;;;18.57;51.23;101453.78;5099257;28;20019;-78
2023/06/14 01:39:14;;;;;;;7.38;2.60;;;;;;;18.81;50.18;101463.31;5075474;28;20047;-78
2023/06/14 01:41:40;;;;;;;6.85;2.65;;;;;;;18.34;51.90;101463.72;5075837;28;20505;-78
2023/06/14 01:44:06;;;;;;;3.42;3.05;;;;;;;18.78;50.24;101469.78;5090159;28;20027;-78
2023/06/14 01:46:32;;;;;;;6.60;2.75;;;;;;;18.58;50.86;101478.09;5095143;28;20041;-78
2023/06/14 01:48:57;;;;;;;7.10;2.78;;;;;;;18.69;50.84;101464.63;5068401;28;20023;-78
2023/06/14 01:51:23;;;;;;;2.42;2.10;;;;;;;18.63;50.67;101471.97;5095242;28;20035;-78
2023/06/14 01:53:48;;;;;;;4.47;2.47;;;;;;;18.60;50.82;101458.63;5092797;28;20031;-78
2023/06/14 01:56:13;;;;;;;4.88;2.55;;;;;;;18.44;51.30;101471.31;5095411;28;20146;-78
2023/06/14 01:58:40;;;;;;;5.20;2.65;;;;;;;18.18;52.08;101466.28;5096196;28;20059;-78
2023/06/14 02:01:06;;;;;;;3.95;2.75;;;;;;;18.57;51.18;101479.31;5080421;28;20038;-78
2023/06/14 02:03:32;;;;;;;3.13;2.10;;;;;;;18.41;51.55;101466.50;5090736;28;20023;-78
2023/06/14 02:05:57;;;;;;;4.43;2.78;;;;;;;18.38;51.20;101475.81;5101586;28;20027;-78
2023/06/14 02:08:23;;;;;;;6.43;2.60;;;;;;;18.16;51.95;101466.69;5094748;28;20035;-78
2023/06/14 02:10:48;;;;;;;3.08;2.30;;;;;;;18.33;51.81;101473.44;5094698;28;20027;-78
2023/06/14 02:13:14;;;;;;;3.60;2.83;;;;;;;18.46;51.23;101476.56;5074299;28;20114;-78
2023/06/14 02:15:39;;;;;;;2.97;2.65;;;;;;;18.23;52.73;101471.50;5092355;28;20024;-78
2023/06/14 02:18:05;;;;;;;5.65;2.60;;;;;;;17.97;53.08;101462.38;5094482;28;20669;-78
2023/06/14 02:20:31;;;;;;;4.60;2.35;;;;;;;17.90;53.74;101468.09;5093432;28;20032;-78
2023/06/14 02:22:57;;;;;;;5.05;2.25;;;;;;;18.15;52.44;101469.94;5087507;28;20095;-78
2023/06/14 02:25:22;;;;;;;4.13;2.33;;;;;;;18.05;53.04;101469.59;5096224;28;20460;-78
2023/06/14 02:27:48;;;;;;;3.67;2.63;;;;;;;18.15;52.48;101472.75;5097448;28;20020;-78
2023/06/14 02:30:15;;;;;;;5.70;2.90;;;;;;;18.14;53.02;101474.81;5066686;28;20094;-78
2023/06/14 02:32:42;;;;;;;4.10;2.50;;;;;;;18.07;53.09;101472.84;5088849;28;20032;-78
2023/06/14 02:35:08;;;;;;;2.83;2.40;;;;;;;18.10;52.95;101476.06;5073025;28;20073;-78
2023/06/14 02:37:33;;;;;;;5.95;2.05;;;;;;;18.14;52.96;101471.97;5092487;28;20035;-79
2023/06/14 02:39:59;;;;;;;4.85;2.50;;;;;;;18.03;53.07;101472.03;5095145;28;20562;-79
2023/06/14 02:42:24;;;;;;;3.40;2.08;;;;;;;17.98;53.30;101474.50;5086063;28;20062;-79
2023/06/14 02:44:51;;;;;;;8.57;2.40;;;;;;;17.90;53.82;101478.59;5093623;28;20047;-79
2023/06/14 02:47:17;;;;;;;3.13;2.35;;;;;;;17.94;53.58;101473.72;5099259;28;20042;-78
2023/06/14 02:49:43;;;;;;;3.17;2.20;;;;;;;17.92;53.70;101476.16;5090140;28;20032;-77
2023/06/14 02:52:08;;;;;;;3.72;2.60;;;;;;;17.80;54.31;101474.59;5099574;28;20038;-78
2023/06/14 02:54:34;;;;;;;4.20;2.60;;;;;;;17.83;54.11;101476.63;5096510;28;20414;-78
2023/06/14 02:56:59;;;;;;;3.15;2.17;;;;;;;17.80;54.71;101480.25;5084843;28;20138;-78
2023/06/14 02:59:26;;;;;;;2.92;2.35;;;;;;;17.95;54.11;101475.34;5095017;28;20036;-78
2023/06/14 03:01:51;;;;;;;3.58;2.45;;;;;;;17.79;54.56;101484.31;5094434;28;20122;-78
2023/06/14 03:04:17;;;;;;;3.80;2.70;;;;;;;17.62;54.57;101481.16;5075274;28;20572;-78
2023/06/14 03:06:44;;;;;;;4.10;2.65;;;;;;;17.80;54.32;101478.22;5099577;28;20039;-78
2023/06/14 03:09:09;;;;;;;4.70;2.65;;;;;;;17.65;54.83;101480.34;5078378;28;20035;-78
2023/06/14 03:11:35;;;;;;;4.97;2.80;;;;;;;17.68;55.25;101492.84;5097742;28;20023;-78
2023/06/14 03:14:03;;;;;;;3.38;2.35;;;;;;;17.66;55.15;101489.63;5093311;28;20031;-78
2023/06/14 03:16:29;;;;;;;3.80;2.58;;;;;;;17.67;55.04;101494.88;5094156;28;20455;-78
2023/06/14 03:18:55;;;;;;;3.45;2.58;;;;;;;17.48;56.06;101493.34;5091063;28;20050;-78
2023/06/14 03:21:21;;;;;;;2.70;2.40;;;;;;;17.41;56.33;101501.06;5087521;28;20717;-78
2023/06/14 03:23:48;;;;;;;3.90;2.50;;;;;;;17.54;55.79;101498.56;5089661;28;20043;-78
2023/06/14 03:26:14;;;;;;;2.88;2.25;;;;;;;17.53;56.07;101500.59;5086242;28;20035;-78
2023/06/14 03:28:41;;;;;;;5.78;3.17;;;;;;;17.56;55.91;101499.81;5086810;28;20059;-78
2023/06/14 03:31:06;;;;;;;3.55;2.33;;;;;;;17.56;56.24;101504.63;5093534;28;20077;-78
2023/06/14 03:33:32;;;;;;;2.90;2.58;;;;;;;17.62;56.07;101503.78;5090083;28;20420;-78
2023/06/14 03:35:57;;;;;;;4.65;2.90;;;;;;;17.60;56.50;101522.41;5074567;28;20103;-78
2023/06/14 03:38:23;;;;;;;10.70;2.40;;;;;;;17.52;56.93;101518.00;5095985;28;20046;-78
2023/06/14 03:40:48;;;;;;;5.65;2.40;;;;;;;17.55;56.70;101520.81;5088284;28;20039;-78
2023/06/14 03:43:14;;;;;;;4.95;2.33;;;;;;;17.53;56.90;101517.59;5095427;28;20027;-78
2023/06/14 03:45:40;;;;;;;3.05;2.30;;;;;;;17.38;57.88;101521.69;5091999;28;20583;-78
2023/06/14 03:48:06;;;;;;;5.38;2.83;;;;;;;17.33;57.50;101530.59;5092363;28;20471;-77
2023/06/14 03:50:32;;;;;;;4.88;2.45;;;;;;;17.35;58.61;101516.84;5090796;28;20111;-78
2023/06/14 03:52:58;;;;;;;4.43;2.42;;;;;;;17.22;58.14;101530.63;5089537;28;20035;-78
2023/06/14 03:55:25;;;;;;;3.45;2.72;;;;;;;17.28;58.25;101524.13;5092465;28;20032;-78
2023/06/14 03:57:51;;;;;;;4.43;2.50;;;;;;;17.26;58.87;101529.41;5088967;28;20395;-78
2023/06/14 04:00:17;;;;;;;3.45;2.53;;;;;;;17.56;57.42;101530.94;5092133;28;20027;-77
2023/06/14 04:02:44;;;;;;;5.45;2.75;;;;;;;17.39;58.07;101538.28;5094012;28;21438;-78
2023/06/14 04:05:09;;;;;;;5.65;2.67;;;;;;;17.03;58.58;101534.72;5077888;28;20024;-78
2023/06/14 04:07:44;;;;;;;7.03;2.80;;;;;;;16.99;60.52;101529.09;5094477;28;20350;-78
2023/06/14 04:10:10;;;;;;;3.17;2.47;;;;;;;17.28;58.77;101535.47;5097644;28;20024;-78
2023/06/14 04:12:36;;;;;;;3.78;3.40;;;;;;;17.06;61.67;101533.91;5100656;28;20536;-78
2023/06/14 04:15:01;;;;;;;3.33;2.67;;;;;;;16.97;60.19;101542.81;5074412;28;20464;-77
2023/06/14 04:17:26;;;;;;;20.08;4.20;;;;;;;17.20;60.50;101542.38;5069717;28;20059;-77
2023/06/14 04:19:52;;;;;;;6.25;3.10;;;;;;;16.97;62.99;101542.00;5097100;28;20034;-77
2023/06/14 04:22:17;;;;;;;3.88;2.80;;;;;;;16.96;60.90;101551.69;5093590;28;20151;-77
2023/06/14 04:24:44;;;;;;;4.03;2.60;;;;;;;17.11;61.78;101563.81;5092379;28;20058;-77
2023/06/14 04:27:10;;;;;;;4.55;2.97;;;;;;;17.03;62.93;101551.69;5072682;28;20041;-78
2023/06/14 04:29:36;;;;;;;3.90;2.47;;;;;;;16.86;62.37;101550.50;5091458;28;20100;-78
2023/06/14 04:32:01;;;;;;;3.97;2.50;;;;;;;16.95;64.34;101558.56;5092017;28;20116;-78
2023/06/14 04:34:29;;;;;;;4.25;2.65;;;;;;;17.22;62.28;101564.56;5094907;28;20050;-77
2023/06/14 04:36:59;;;;;;;5.25;2.78;;;;;;;17.26;62.08;101559.72;5075607;28;20102;-78
2023/06/14 04:39:25;;;;;;;4.70;2.45;;;;;;;17.18;60.75;101563.78;5097976;28;20076;-78
2023/06/14 04:41:51;;;;;;;3.72;2.50;;;;;;;16.81;64.05;101573.53;5071908;28;20027;-78
2023/06/14 04:44:18;;;;;;;7.30;2.65;;;;;;;17.11;62.71;101575.13;5093133;28;20520;-78
2023/06/14 04:46:47;;;;;;;3.28;2.58;;;;;;;17.05;65.51;101574.72;5073482;28;20040;-77
2023/06/14 04:49:14;;;;;;;4.88;2.92;;;;;;;16.81;66.82;101579.97;5096057;28;20022;-77
2023/06/14 04:51:40;;;;;;;6.13;3.10;;;;;;;16.98;62.50;101584.00;5093996;28;20032;-77
2023/06/14 04:54:09;;;;;;;5.35;3.55;;;;;;;16.86;66.55;101585.25;5090355;28;20056;-78
2023/06/14 04:56:35;;;;;;;3.70;2.88;;;;;;;16.82;66.00;101583.59;5093654;28;20039;-77
2023/06/14 04:59:00;;;;;;;3.17;2.72;;;;;;;16.90;65.91;101588.06;5098745;28;20059;-77
2023/06/14 05:01:26;;;;;;;3.72;2.78;;;;;;;16.88;66.92;101589.69;5097456;28;20028;-77
2023/06/14 05:03:51;;;;;;;4.60;2.83;;;;;;;17.09;64.84;101583.19;5092872;28;20448;-77
2023/06/14 05:06:17;;;;;;;6.78;3.08;;;;;;;17.14;65.40;101586.44;5101184;28;20027;-77
2023/06/14 05:08:42;;;;;;;5.47;3.47;;;;;;;17.14;64.29;101592.09;5096393;28;20028;-77
2023/06/14 05:11:08;;;;;;;5.18;3.08;;;;;;;17.14;63.82;101594.91;5092619;28;20763;-77
2023/06/14 05:13:34;;;;;;;5.35;3.10;;;;;;;17.12;65.09;101591.69;5091864;28;20476;-77
2023/06/14 05:16:00;;;;;;;5.88;3.60;;;;;;;17.19;63.46;101597.31;5090659;28;20375;-77
2023/06/14 05:18:25;;;;;;;3.80;3.05;;;;;;;17.03;66.81;101596.94;5090940;28;20137;-77
2023/06/14 05:20:51;;;;;;;6.13;3.70;;;;;;;16.95;66.71;101598.16;5078937;28;20479;-77
2023/06/14 05:23:16;;;;;;;7.55;4.25;;;;;;;16.93;66.61;101601.41;5090380;28;20060;-77
2023/06/14 05:25:45;;;;;;;5.18;3.42;;;;;;;16.98;64.90;101605.84;5086214;28;20036;-77
2023/06/14 05:28:11;;;;;;;8.13;3.28;;;;;;;16.89;67.68;101602.59;5084393;28;20441;-78
2023/06/14 05:30:38;;;;;;;5.38;3.42;;;;;;;17.01;66.79;101603.00;5083728;28;20118;-77
2023/06/14 05:33:03;;;;;;;5.07;3.45;;;;;;;17.08;65.93;101607.84;5093372;28;20647;-78
2023/06/14 05:35:29;;;;;;;5.43;3.58;;;;;;;16.97;65.75;101610.69;5091692;28;20039;-77
2023/06/14 05:37:54;;;;;;;6.88;3.42;;;;;;;17.05;64.90;101606.66;5085458;28;20689;-77
2023/06/14 05:40:20;;;;;;;9.48;3.38;;;;;;;17.25;65.18;101604.19;5089664;28;20116;-77
2023/06/14 05:42:46;;;;;;;5.82;3.38;;;;;;;17.27;65.95;101606.63;5075042;28;20035;-77
2023/06/14 05:45:11;;;;;;;4.88;2.83;;;;;;;17.39;63.98;101602.53;5070407;28;20093;-78
2023/06/14 05:47:37;;;;;;;6.22;3.20;;;;;;;17.46;65.52;101605.38;5088187;28;20020;-78
2023/06/14 05:50:02;;;;;;;4.78;3.22;;;;;;;17.46;65.41;101606.16;5076907;28;20016;-77
2023/06/14 05:52:29;;;;;;;7.32;3.40;;;;;;;17.78;62.67;101618.63;5068612;28;20136;-77
2023/06/14 05:54:55;;;;;;;5.18;3.33;;;;;;;17.64;64.38;101623.09;5089091;28;20028;-77
2023/06/14 05:57:20;;;;;;;9.02;4.00;;;;;;;17.50;65.21;101614.66;5091566;28;20101;-78
2023/06/14 05:59:45;;;;;;;5.07;3.80;;;;;;;17.80;65.46;101633.16;5088575;28;20489;-78
2023/06/14 06:02:10;;;;;;;7.63;3.55;;;;;;;17.94;64.10;101626.66;5075102;28;20062;-77
2023/06/14 06:04:36;;;;;;;5.93;4.28;;;;;;;17.93;63.13;101631.53;5072741;28;20038;-75
2023/06/14 06:07:01;;;;;;;4.55;2.83;;;;;;;18.15;61.11;101637.09;5089881;28;20111;-77
2023/06/14 06:09:27;;;;;;;5.85;2.97;;;;;;;18.22;64.47;101637.88;5076636;28;20031;-75
2023/06/14 06:11:52;;;;;;;4.45;3.13;;;;;;;18.81;63.96;101634.28;5092055;28;20115;-76
2023/06/14 06:14:17;;;;;;;5.47;3.20;;;;;;;19.04;60.29;101630.06;5082283;28;20038;-75
2023/06/14 06:16:43;;;;;;;5.22;2.67;;;;;;;20.13;59.91;101639.84;5093674;28;22061;-75
2023/06/14 06:19:08;;;;;;;5.10;3.35;;;;;;;20.69;57.23;101643.16;5084081;28;20387;-75
2023/06/14 06:21:33;;;;;;;7.28;3.38;;;;;;;21.74;53.84;101649.91;5088921;28;20054;-75
2023/06/14 06:23:59;;;;;;;4.13;3.42;;;;;;;20.56;53.99;101642.09;5096502;28;20518;-75
2023/06/14 06:26:26;;;;;;;11.13;3.63;;;;;;;21.51;53.94;101649.50;5093007;28;20096;-76
2023/06/14 06:28:52;;;;;;;3.95;3.20;;;;;;;20.96;52.52;101645.16;5085088;28;20058;-75
2023/06/14 06:31:17;;;;;;;4.88;3.17;;;;;;;19.98;55.30;101636.38;5098775;28;20125;-74
2023/06/14 06:33:42;;;;;;;6.95;2.95;;;;;;;19.98;56.67;101639.22;5093239;28;20024;-78
2023/06/14 06:36:08;;;;;;;4.20;3.00;;;;;;;20.26;55.32;101645.75;5085969;28;20064;-77
2023/06/14 06:38:33;;;;;;;11.85;3.45;;;;;;;20.20;55.36;101650.34;5085233;28;20394;-79
2023/06/14 06:40:58;;;;;;;4.28;2.92;;;;;;;20.66;55.29;101655.41;5094508;28;20460;-80
2023/06/14 06:43:24;;;;;;;6.03;2.60;;;;;;;20.95;53.72;101654.13;5091042;28;20040;-80
2023/06/14 06:45:49;;;;;;;4.18;2.60;;;;;;;21.25;53.48;101659.72;5095653;28;20023;-81
2023/06/14 06:48:15;;;;;;;5.25;3.00;;;;;;;21.60;51.58;101674.56;5091574;28;20016;-80
2023/06/14 06:50:41;;;;;;;9.38;3.17;;;;;;;21.66;50.81;101672.84;5074907;28;20084;-80
2023/06/14 06:53:06;;;;;;;4.65;2.63;;;;;;;22.16;50.57;101671.03;5075141;28;20489;-80
2023/06/14 06:55:32;;;;;;;4.03;2.75;;;;;;;22.19;50.10;101667.28;5075692;28;20034;-79
2023/06/14 06:57:57;;;;;;;4.78;2.45;;;;;;;22.17;49.06;101677.53;5093494;28;20058;-80
2023/06/14 07:00:23;;;;;;;3.70;2.47;;;;;;;22.21;50.08;101679.06;5083257;28;21650;-79
2023/06/14 07:02:49;;;;;;;3.42;2.55;;;;;;;21.57;49.59;101675.47;5092679;28;20031;-81
2023/06/14 07:05:14;;;;;;;5.18;2.38;;;;;;;21.90;50.22;101678.47;5097371;28;20023;-80
2023/06/14 07:07:40;;;;;;;6.97;2.80;;;;;;;22.44;49.77;101683.09;5098068;28;20019;-80
2023/06/14 07:10:05;;;;;;;7.93;3.50;;;;;;;22.15;49.21;101675.13;5098078;28;20111;-80
2023/06/14 07:12:33;;;;;;;21.25;6.68;;;;;;;22.42;49.22;101683.53;5102215;28;20054;-84
2023/06/14 07:14:59;;;;;;;9.07;3.60;;;;;;;22.79;47.73;101683.50;5100332;28;20036;-85
2023/06/14 07:17:25;;;;;;;10.43;2.67;;;;;;;21.56;49.91;101685.22;5075734;28;20388;-79
2023/06/14 07:19:50;;;;;;;2.88;1.90;;;;;;;21.40;49.35;101687.94;5096435;28;21217;-80
2023/06/14 07:22:16;;;;;;;4.55;2.35;;;;;;;21.26;50.60;101677.59;5092168;28;20387;-80
2023/06/14 07:24:42;;;;;;;3.20;2.17;;;;;;;21.20;49.86;101688.69;5099247;28;20056;-80
2023/06/14 07:27:07;;;;;;;2.72;2.20;;;;;;;21.34;50.04;101684.78;5095423;28;20030;-79
2023/06/14 07:29:33;;;;;;;4.22;2.10;;;;;;;21.39;50.67;101687.13;5095902;28;20852;-79
2023/06/14 07:31:58;;;;;;;3.50;2.40;;;;;;;21.44;50.50;101691.56;5097339;28;20036;-79
2023/06/14 07:34:23;;;;;;;2.35;2.15;;;;;;;21.42;49.53;101694.03;5104206;28;20387;-80
2023/06/14 07:36:49;;;;;;;4.18;2.85;;;;;;;21.52;49.38;101701.59;5099714;28;20043;-79
2023/06/14 07:39:15;;;;;;;2.75;2.30;;;;;;;21.53;49.28;101697.50;5101516;28;20059;-79
2023/06/14 07:41:40;;;;;;;3.40;2.10;;;;;;;21.60;49.55;101703.06;5100100;28;20055;-79
2023/06/14 07:44:05;;;;;;;4.30;2.15;;;;;;;21.58;49.45;101697.00;5102546;28;20023;-79
2023/06/14 07:46:31;;;;;;;3.53;2.50;;;;;;;21.58;48.96;101699.84;5104876;28;20028;-79
2023/06/14 07:48:56;;;;;;;3.38;2.22;;;;;;;21.53;49.53;101700.34;5105880;28;20035;-80
2023/06/14 07:51:22;;;;;;;3.10;2.00;;;;;;;21.75;48.56;101702.81;5084598;28;20019;-79
2023/06/14 07:53:48;;;;;;;3.67;2.45;;;;;;;21.78;48.12;101696.22;5100836;28;20043;-80
2023/06/14 07:56:14;;;;;;;3.05;2.08;;;;;;;21.79;46.06;101698.63;5106667;28;20501;-80
2023/06/14 07:58:39;;;;;;;2.80;2.00;;;;;;;21.82;46.36;101709.19;5104374;28;20032;-80
2023/06/14 08:01:06;;;;;;;3.88;1.85;;;;;;;22.07;48.01;101713.56;5096732;28;20182;-80
2023/06/14 08:03:32;;;;;;;5.07;2.28;;;;;;;22.20;48.49;101713.72;5099778;28;20035;-80
2023/06/14 08:05:57;;;;;;;5.28;2.17;;;;;;;22.08;46.98;101716.00;5099913;28;20019;-80
2023/06/14 08:08:23;;;;;;;3.17;2.30;;;;;;;22.13;46.70;101714.66;5100756;28;20046;-81
2023/06/14 08:10:48;;;;;;;5.82;2.38;;;;;;;22.22;46.22;101714.06;5098848;28;20036;-80
2023/06/14 08:13:14;;;;;;;3.25;2.30;;;;;;;22.36;47.56;101713.81;5105730;28;20067;-81
2023/06/14 08:15:39;;;;;;;3.67;2.17;;;;;;;22.54;45.58;101713.44;5101233;28;20027;-81
2023/06/14 08:18:04;;;;;;;3.45;2.67;;;;;;;22.41;45.27;101712.50;5101170;28;20032;-81
2023/06/14 08:20:31;;;;;;;2.60;2.30;;;;;;;22.52;46.24;101704.53;5102933;28;20028;-80
2023/06/14 08:22:57;;;;;;;2.63;2.22;;;;;;;22.72;44.29;101710.16;5087402;28;20475;-80
2023/06/14 08:25:22;;;;;;;4.03;2.08;;;;;;;22.60;45.51;101699.44;5096074;28;20023;-79
2023/06/14 08:27:48;;;;;;;4.43;2.10;;;;;;;22.67;43.07;101707.84;5097105;28;20027;-79
2023/06/14 08:30:14;;;;;;;3.55;2.17;;;;;;;22.88;45.65;101701.66;5103657;28;20035;-80
2023/06/14 08:32:39;;;;;;;2.95;2.10;;;;;;;22.94;45.35;101699.06;5092689;28;20502;-80
2023/06/14 08:35:05;;;;;;;2.20;1.92;;;;;;;23.08;42.82;101695.09;5100745;28;20061;-79
2023/06/14 08:37:31;;;;;;;3.03;2.00;;;;;;;23.05;43.40;101707.41;5079974;28;20028;-80
2023/06/14 08:39:56;;;;;;;2.42;2.00;;;;;;;23.11;43.82;101697.06;5100352;28;20504;-80
2023/06/14 08:42:24;;;;;;;3.08;2.13;;;;;;;23.18;43.07;101699.72;5074847;28;20024;-80
2023/06/14 08:44:49;;;;;;;4.13;1.80;;;;;;;23.31;43.66;101702.66;5103665;28;20546;-80
2023/06/14 08:47:17;;;;;;;2.28;2.08;;;;;;;23.29;44.10;101694.53;5098200;28;20424;-80
2023/06/14 08:49:47;;;;;;;4.10;2.22;;;;;;;23.36;45.63;101704.19;5095372;28;20044;-80
2023/06/14 08:52:15;;;;;;;4.85;2.17;;;;;;;23.46;41.32;101697.38;5092972;28;20031;-80
2023/06/14 08:54:43;;;;;;;3.28;1.75;;;;;;;23.55;42.93;101691.84;5105306;28;20043;-80
2023/06/14 08:57:12;;;;;;;3.40;2.08;;;;;;;23.41;41.31;101690.16;5085914;28;20027;-80
2023/06/14 08:59:46;;;;;;;2.72;1.60;;;;;;;23.40;40.39;101707.75;5101278;28;20020;-80
2023/06/14 09:02:13;;;;;;;4.00;1.67;;;;;;;23.51;40.51;101697.66;5100983;28;20028;-80
2023/06/14 09:04:39;;;;;;;2.60;1.83;;;;;;;23.71;42.90;101703.22;5103587;28;20027;-81
2023/06/14 09:07:06;;;;;;;2.50;1.65;;;;;;;23.67;40.32;101718.88;5088995;28;20036;-80
2023/06/14 09:09:32;;;;;;;3.92;2.05;;;;;;;23.65;41.49;101705.03;5088916;28;20480;-80
2023/06/14 09:11:57;;;;;;;3.00;1.92;;;;;;;23.85;41.87;101709.84;5095482;28;20035;-79
2023/06/14 09:14:24;;;;;;;3.88;2.10;;;;;;;23.86;41.96;101702.88;5096648;28;20031;-80
2023/06/14 09:16:54;;;;;;;2.83;2.47;;;;;;;24.06;41.40;101712.09;5104538;28;20035;-80
2023/06/14 09:19:25;;;;;;;3.47;2.35;;;;;;;24.05;41.38;101716.22;5100736;28;20027;-80
2023/06/14 09:21:53;;;;;;;5.20;2.20;;;;;;;23.96;40.25;101716.06;5094477;28;20338;-80
2023/06/14 09:24:19;;;;;;;2.78;2.47;;;;;;;23.96;39.79;101718.13;5099707;28;20044;-80
2023/06/14 09:26:47;;;;;;;2.50;1.67;;;;;;;23.98;42.22;101712.78;5100342;28;20036;-80
2023/06/14 09:29:13;;;;;;;4.13;2.35;;;;;;;24.11;40.38;101705.03;5075574;28;20016;-80
2023/06/14 09:31:38;;;;;;;5.07;2.00;;;;;;;24.18;39.77;101712.59;5088737;28;20032;-80
2023/06/14 09:34:04;;;;;;;2.47;1.95;;;;;;;24.19;40.87;101719.94;5095848;28;20126;-80
2023/06/14 09:36:32;;;;;;;2.42;1.85;;;;;;;24.09;37.63;101705.47;5088613;28;20458;-80
2023/06/14 09:39:00;;;;;;;2.38;2.00;;;;;;;24.36;37.10;101704.28;5072817;28;20032;-80
2023/06/14 09:41:36;;;;;;;2.75;1.88;;;;;;;24.38;38.20;101709.56;5090781;28;20033;-80
2023/06/14 09:44:05;;;;;;;2.40;1.77;;;;;;;24.52;37.85;101715.69;5096559;28;20154;-80
2023/06/14 09:46:30;;;;;;;2.95;1.67;;;;;;;24.66;37.78;101716.50;5091425;28;20106;-80
2023/06/14 09:48:57;;;;;;;2.70;1.88;;;;;;;24.63;37.58;101714.56;5098163;28;20085;-80
2023/06/14 09:51:23;;;;;;;3.53;1.58;;;;;;;24.44;37.44;101708.53;5097579;28;20483;-80
2023/06/14 09:53:49;;;;;;;2.63;1.50;;;;;;;24.52;36.88;101715.69;5097286;28;20027;-81
2023/06/14 09:56:33;;;;;;;1.83;1.73;;;;;;;24.78;37.15;101715.72;5086605;28;20387;-80
2023/06/14 09:58:59;;;;;;;2.25;1.83;;;;;;;24.70;36.88;101711.47;5095576;28;20099;-81
2023/06/14 10:01:28;;;;;;;3.33;2.38;;;;;;;24.84;36.25;101716.75;5078445;28;20028;-81
2023/06/14 10:04:03;;;;;;;3.90;1.90;;;;;;;24.78;37.13;101698.53;5099723;28;20065;-81
2023/06/14 10:06:30;;;;;;;2.70;2.33;;;;;;;24.94;37.08;101712.75;5106048;28;20369;-81
2023/06/14 10:09:01;;;;;;;2.42;1.83;;;;;;;24.61;38.18;101712.16;5094371;28;20039;-80
2023/06/14 10:11:27;;;;;;;4.72;2.20;;;;;;;24.98;38.73;101706.09;5081448;28;20580;-81
2023/06/14 10:13:57;;;;;;;2.83;1.95;;;;;;;24.94;36.43;101707.00;5092251;28;20047;-80
2023/06/14 10:16:33;;;;;;;3.40;1.80;;;;;;;25.11;36.27;101704.81;5091115;28;20454;-80
2023/06/14 10:18:58;;;;;;;3.53;1.80;;;;;;;25.40;36.62;101703.06;5094802;28;20028;-80
2023/06/14 10:21:23;;;;;;;2.42;1.92;;;;;;;25.48;38.36;101713.81;5083520;28;20548;-81
2023/06/14 10:23:49;;;;;;;2.47;1.67;;;;;;;25.53;35.68;101718.16;5094597;28;20048;-84
2023/06/14 10:26:23;;;;;;;2.80;1.88;;;;;;;25.35;35.96;101713.88;5092634;28;20036;-84
2023/06/14 10:28:58;;;;;;;1.70;1.60;;;;;;;25.58;36.14;101709.00;5098638;28;20117;-84
2023/06/14 10:31:40;;;;;;;2.13;1.58;;;;;;;25.33;37.27;101704.91;5098589;28;20141;-84
2023/06/14 10:34:05;;;;;;;3.67;1.50;;;;;;;25.47;35.16;101708.59;5095902;28;20123;-83
2023/06/14 10:36:33;;;;;;;2.63;1.75;;;;;;;25.56;35.71;101718.06;5090102;28;20118;-83
2023/06/14 10:39:00;;;;;;;3.20;2.13;;;;;;;25.61;34.93;101708.06;5092723;28;20122;-78
2023/06/14 10:41:28;;;;;;;1.20;1.10;;;;;;;25.75;35.62;101695.28;5081092;28;20036;-79
2023/06/14 10:44:13;;;;;;;2.45;1.60;;;;;;;25.84;35.03;101695.34;5084752;28;20055;-79
2023/06/14 10:46:48;;;;;;;2.42;1.63;;;;;;;26.05;35.44;101699.53;5089395;28;20061;-79
2023/06/14 10:49:20;;;;;;;2.63;1.42;;;;;;;25.99;35.08;101703.47;5092754;28;20495;-79
2023/06/14 10:51:52;;;;;;;2.83;1.75;;;;;;;26.12;35.27;101696.41;5102868;28;20051;-79
2023/06/14 10:54:21;;;;;;;5.13;1.73;;;;;;;26.02;34.81;101696.81;5095987;28;20038;-80
2023/06/14 10:56:48;;;;;;;3.17;2.05;;;;;;;26.11;35.53;101694.81;5099757;28;20027;-81
2023/06/14 10:59:14;;;;;;;2.42;1.95;;;;;;;26.00;33.89;101697.28;5083769;28;20136;-82
2023/06/14 11:02:20;;;;;;;1.92;1.60;;;;;;;26.21;32.63;101694.88;5093855;28;20034;-82
2023/06/14 11:04:53;;;;;;;2.67;1.90;;;;;;;26.27;33.54;101699.53;5098458;28;20441;-81
2023/06/14 11:07:35;;;;;;;4.32;2.20;;;;;;;26.29;32.86;101693.31;5095452;28;20031;-82
2023/06/14 11:10:22;;;;;;;2.15;1.70;;;;;;;26.22;32.89;101682.13;5086774;28;20051;-81
2023/06/14 11:12:49;;;;;;;2.28;1.65;;;;;;;26.39;32.88;101702.78;5093744;28;20088;-82
2023/06/14 11:15:14;;;;;;;2.97;2.00;;;;;;;26.54;32.20;101695.22;5094314;28;20472;-81
2023/06/14 11:17:51;;;;;;;2.33;2.13;;;;;;;26.65;31.58;101689.06;5085882;28;20092;-82
2023/06/14 11:20:17;;;;;;;2.47;1.67;;;;;;;26.76;33.17;101695.22;5098480;28;20586;-82
2023/06/14 11:22:42;;;;;;;2.67;1.60;;;;;;;26.33;32.96;101696.84;5090312;28;20020;-81